Time;durP1;ratioP1;P1;durP2;ratioP2;P2;SDS_P1;SDS_P2;PMS_P1;PMS_P2;Temp;Humidity;BMP_temperature;BMP_pressure;BME280_temperature;BME280_humidity;BME280_pressure;Samples;Min_cycle;Max_cycle;Signal;HPM_P1;HPM_P2
2021/08/17 00:00:49;;;;;;;11.30;10.50;;;13.70;99.90;;;;;;4978249;28;20211;-79
2021/08/17 00:03:16;;;;;;;11.30;10.37;;;13.70;99.90;;;;;;4984096;28;20289;-79
2021/08/17 00:05:43;;;;;;;12.00;11.00;;;13.70;99.90;;;;;;4979343;28;20240;-78
2021/08/17 00:08:11;;;;;;;11.37;10.43;;;13.60;99.90;;;;;;4960891;28;20257;-79
2021/08/17 00:10:39;;;;;;;11.70;10.80;;;13.60;99.90;;;;;;4982008;28;20237;-78
2021/08/17 00:13:06;;;;;;;11.83;10.83;;;13.60;99.90;;;;;;4977836;28;20581;-79
2021/08/17 00:15:34;;;;;;;11.70;10.70;;;13.50;99.90;;;;;;4981088;28;20287;-78
2021/08/17 00:18:01;;;;;;;11.50;10.50;;;13.60;99.90;;;;;;4979803;28;20205;-78
2021/08/17 00:20:28;;;;;;;11.60;10.70;;;13.60;99.90;;;;;;4979042;28;20202;-78
2021/08/17 00:22:55;;;;;;;11.20;10.40;;;13.60;99.90;;;;;;4975993;28;20260;-79
2021/08/17 00:25:22;;;;;;;11.90;10.90;;;13.60;99.90;;;;;;4972384;28;20268;-77
2021/08/17 00:27:50;;;;;;;11.60;10.60;;;13.60;99.90;;;;;;4964673;28;20200;-79
2021/08/17 00:30:17;;;;;;;11.80;10.80;;;13.60;99.90;;;;;;4977371;28;20629;-78
2021/08/17 00:32:44;;;;;;;11.80;10.80;;;13.50;99.90;;;;;;4963400;28;20206;-78
2021/08/17 00:35:11;;;;;;;12.13;11.03;;;13.40;99.90;;;;;;4981515;28;20222;-78
2021/08/17 00:37:38;;;;;;;11.53;10.53;;;13.40;99.90;;;;;;4964071;28;20728;-79
2021/08/17 00:40:06;;;;;;;11.80;10.80;;;13.40;99.90;;;;;;4979808;28;20251;-79
2021/08/17 00:42:38;;;;;;;11.67;10.77;;;13.30;99.90;;;;;;4972745;28;20643;-79
2021/08/17 00:45:07;;;;;;;11.27;10.27;;;13.20;99.90;;;;;;4978889;28;20599;-79
2021/08/17 00:47:34;;;;;;;12.27;11.30;;;13.20;99.90;;;;;;4975945;28;20655;-78
2021/08/17 00:50:01;;;;;;;11.83;10.90;;;13.30;99.90;;;;;;4976789;28;20242;-80
2021/08/17 00:52:28;;;;;;;11.80;10.90;;;13.20;99.90;;;;;;4984216;28;20246;-78
2021/08/17 00:54:55;;;;;;;11.93;10.93;;;13.30;99.90;;;;;;4957746;28;20288;-79
2021/08/17 00:57:22;;;;;;;12.27;11.27;;;13.40;99.90;;;;;;4965203;28;20204;-80
2021/08/17 00:59:49;;;;;;;12.13;11.13;;;13.50;99.90;;;;;;4975032;28;20263;-79
2021/08/17 01:02:17;;;;;;;12.27;11.37;;;13.50;99.90;;;;;;4976147;28;20214;-79
2021/08/17 01:04:43;;;;;;;12.20;11.30;;;13.50;99.90;;;;;;4979715;28;20822;-79
2021/08/17 01:07:11;;;;;;;12.00;10.90;;;13.50;99.90;;;;;;4976130;28;20635;-78
2021/08/17 01:09:37;;;;;;;12.30;11.17;;;13.50;99.90;;;;;;4959400;28;20209;-79
2021/08/17 01:12:05;;;;;;;13.00;11.80;;;13.60;99.90;;;;;;4960892;28;20205;-79
2021/08/17 01:14:32;;;;;;;13.07;11.87;;;13.50;99.90;;;;;;4976531;28;20712;-79
2021/08/17 01:16:59;;;;;;;13.13;12.00;;;13.50;99.90;;;;;;4953500;28;20201;-78
2021/08/17 01:19:27;;;;;;;13.07;11.97;;;13.60;99.90;;;;;;4963257;28;20276;-79
2021/08/17 01:21:55;;;;;;;12.30;11.40;;;13.50;99.90;;;;;;4966595;28;20225;-79
2021/08/17 01:24:22;;;;;;;13.00;11.90;;;13.50;99.90;;;;;;4966273;28;20644;-79
2021/08/17 01:26:50;;;;;;;12.80;11.70;;;13.50;99.90;;;;;;4983831;28;20205;-77
2021/08/17 01:29:17;;;;;;;12.83;11.70;;;13.60;99.90;;;;;;4980226;28;20633;-79
2021/08/17 01:31:45;;;;;;;13.30;12.20;;;13.50;99.90;;;;;;4980383;28;20197;-81
2021/08/17 01:34:12;;;;;;;12.13;11.23;;;13.50;99.90;;;;;;4961125;28;20221;-79
2021/08/17 01:36:38;;;;;;;12.63;11.53;;;13.50;99.90;;;;;;4978507;28;20200;-79
2021/08/17 01:39:05;;;;;;;13.00;11.87;;;13.40;99.90;;;;;;4981355;28;20264;-79
2021/08/17 01:41:32;;;;;;;12.60;11.60;;;13.40;99.90;;;;;;4976657;28;20565;-78
2021/08/17 01:44:04;;;;;;;11.47;10.57;;;13.30;99.90;;;;;;4975735;28;20229;-78
2021/08/17 01:46:31;;;;;;;11.70;10.80;;;13.20;99.90;;;;;;4978897;28;20707;-79
2021/08/17 01:48:58;;;;;;;11.37;10.33;;;13.10;99.90;;;;;;4979141;28;20554;-78
2021/08/17 01:51:25;;;;;;;12.10;11.00;;;12.90;99.90;;;;;;4965819;28;20256;-79
2021/08/17 01:53:52;;;;;;;12.63;11.63;;;12.90;99.90;;;;;;4976231;28;20295;-78
2021/08/17 01:56:19;;;;;;;12.07;11.10;;;12.80;99.90;;;;;;4980040;28;20232;-78
2021/08/17 01:58:45;;;;;;;12.17;11.27;;;12.80;99.90;;;;;;4980448;28;20215;-79
2021/08/17 02:01:14;;;;;;;12.80;11.70;;;12.70;99.90;;;;;;4978585;28;20217;-79
2021/08/17 02:03:41;;;;;;;12.07;11.07;;;12.60;99.90;;;;;;4977698;28;20259;-79
2021/08/17 02:06:10;;;;;;;12.40;11.30;;;12.50;99.90;;;;;;4982023;28;20674;-79
2021/08/17 02:08:36;;;;;;;12.27;11.23;;;12.50;99.90;;;;;;4981590;28;20619;-79
2021/08/17 02:11:03;;;;;;;12.27;11.27;;;12.40;99.90;;;;;;4978423;28;20248;-78
2021/08/17 02:13:30;;;;;;;12.43;11.43;;;12.20;99.90;;;;;;4961431;28;20204;-79
2021/08/17 02:16:00;;;;;;;12.30;11.20;;;12.20;99.90;;;;;;4964272;28;20211;-78
2021/08/17 02:18:30;;;;;;;12.30;11.27;;;12.20;99.90;;;;;;4982570;28;20200;-78
2021/08/17 02:20:58;;;;;;;11.90;10.90;;;12.10;99.90;;;;;;4986436;28;20301;-79
2021/08/17 02:23:25;;;;;;;12.30;11.20;;;12.00;99.90;;;;;;4975155;28;20705;-78
2021/08/17 02:25:52;;;;;;;11.97;11.00;;;11.90;99.90;;;;;;4963722;28;20307;-79
2021/08/17 02:28:19;;;;;;;12.70;11.50;;;11.90;99.90;;;;;;4960970;28;20248;-79
2021/08/17 02:30:47;;;;;;;11.60;10.70;;;11.80;99.90;;;;;;4976671;28;20201;-79
2021/08/17 02:33:13;;;;;;;12.03;11.07;;;11.80;99.90;;;;;;4975317;28;20279;-79
2021/08/17 02:35:42;;;;;;;12.27;11.27;;;11.80;99.90;;;;;;4981170;28;20221;-79
2021/08/17 02:38:09;;;;;;;12.77;11.87;;;11.80;99.90;;;;;;4958698;28;20207;-79
2021/08/17 02:40:36;;;;;;;13.00;12.00;;;11.80;99.90;;;;;;4971292;28;20207;-78
2021/08/17 02:43:04;;;;;;;13.50;12.30;;;11.80;99.90;;;;;;4978789;28;20227;-77
2021/08/17 02:45:31;;;;;;;12.27;11.33;;;11.70;99.90;;;;;;4960715;28;20304;-78
2021/08/17 02:47:58;;;;;;;11.53;10.63;;;11.60;99.90;;;;;;4975205;28;20210;-77
2021/08/17 02:50:25;;;;;;;11.93;10.93;;;11.50;99.90;;;;;;4952528;28;20288;-78
2021/08/17 02:52:54;;;;;;;12.70;11.77;;;11.40;99.90;;;;;;4948360;28;20242;-77
2021/08/17 02:55:21;;;;;;;11.70;10.70;;;11.40;99.90;;;;;;4980469;28;20223;-77
2021/08/17 02:58:01;;;;;;;11.63;10.73;;;11.30;99.90;;;;;;4963005;28;20230;-77
2021/08/17 03:01:20;;;;;;;12.40;11.50;;;11.20;99.90;;;;;;4960335;28;20195;-77
2021/08/17 03:04:12;;;;;;;12.13;11.13;;;11.20;99.90;;;;;;4963208;28;20222;-77
2021/08/17 03:06:39;;;;;;;12.13;11.13;;;11.20;99.90;;;;;;4977340;28;20209;-77
2021/08/17 03:09:07;;;;;;;11.80;10.90;;;11.20;99.90;;;;;;4978719;28;20196;-76
2021/08/17 03:11:34;;;;;;;11.97;11.07;;;11.20;99.90;;;;;;4980859;28;20273;-77
2021/08/17 03:14:01;;;;;;;12.40;11.40;;;11.20;99.90;;;;;;4957173;28;20692;-77
2021/08/17 03:16:28;;;;;;;12.67;11.63;;;11.10;99.90;;;;;;4978255;28;20198;-76
2021/08/17 03:18:54;;;;;;;12.07;11.07;;;11.20;99.90;;;;;;4961319;28;20269;-77
2021/08/17 03:21:21;;;;;;;12.07;11.17;;;11.10;99.90;;;;;;4955052;28;20258;-77
2021/08/17 03:23:48;;;;;;;13.40;12.20;;;11.10;99.90;;;;;;4958135;28;20908;-75
2021/08/17 03:26:17;;;;;;;13.40;12.30;;;11.10;99.90;;;;;;4974101;28;20194;-77
2021/08/17 03:28:43;;;;;;;13.60;12.40;;;11.10;99.90;;;;;;4975640;28;20202;-76
2021/08/17 03:31:10;;;;;;;13.03;12.03;;;11.10;99.90;;;;;;4978089;28;20198;-77
2021/08/17 03:33:38;;;;;;;12.97;11.97;;;11.10;99.90;;;;;;4960967;28;20227;-76
2021/08/17 03:36:05;;;;;;;13.30;12.20;;;11.10;99.90;;;;;;4973623;28;20198;-77
2021/08/17 03:38:32;;;;;;;18.60;13.23;;;11.10;99.90;;;;;;4977714;28;20209;-76
2021/08/17 03:40:59;;;;;;;13.20;12.30;;;11.10;99.90;;;;;;4961820;28;20197;-77
2021/08/17 03:43:28;;;;;;;14.47;13.17;;;11.00;99.90;;;;;;4975695;28;20217;-77
2021/08/17 03:45:55;;;;;;;13.77;12.53;;;11.00;99.90;;;;;;4979754;28;20197;-77
2021/08/17 03:48:22;;;;;;;13.70;12.67;;;11.00;99.90;;;;;;4978381;28;20193;-76
2021/08/17 03:50:49;;;;;;;13.40;12.33;;;10.90;99.90;;;;;;4958611;28;20266;-76
2021/08/17 03:53:16;;;;;;;14.17;13.00;;;10.90;99.90;;;;;;4961812;28;20202;-78
2021/08/17 03:55:43;;;;;;;13.43;12.33;;;10.90;99.90;;;;;;4963377;28;20226;-76
2021/08/17 03:58:10;;;;;;;13.37;12.27;;;10.90;99.90;;;;;;4959491;28;20194;-76
2021/08/17 04:00:38;;;;;;;15.27;14.07;;;11.00;99.90;;;;;;4977314;28;20248;-77
2021/08/17 04:03:05;;;;;;;14.53;13.27;;;11.10;99.90;;;;;;4960700;28;20269;-77
2021/08/17 04:05:32;;;;;;;14.97;13.57;;;11.10;99.90;;;;;;4955765;28;20239;-76
2021/08/17 04:07:59;;;;;;;14.80;13.60;;;11.10;99.90;;;;;;4974425;28;20254;-76
2021/08/17 04:10:26;;;;;;;14.23;13.13;;;11.10;99.90;;;;;;4977387;28;20198;-78
2021/08/17 04:12:53;;;;;;;16.23;14.97;;;11.20;99.90;;;;;;4979531;28;20672;-77
2021/08/17 04:15:19;;;;;;;15.53;14.30;;;11.20;99.90;;;;;;4966433;28;20222;-77
2021/08/17 04:17:48;;;;;;;15.80;14.50;;;11.30;99.90;;;;;;4947039;28;20206;-77
2021/08/17 04:20:16;;;;;;;16.53;15.23;;;11.30;99.90;;;;;;4965903;28;20202;-77
2021/08/17 04:22:43;;;;;;;15.90;14.60;;;11.30;99.90;;;;;;4966758;28;20717;-77
2021/08/17 04:25:11;;;;;;;16.50;15.10;;;11.40;99.90;;;;;;4947346;28;20273;-77
2021/08/17 04:27:38;;;;;;;15.30;14.10;;;11.40;99.90;;;;;;4964578;28;20246;-77
2021/08/17 04:30:06;;;;;;;16.50;15.00;;;11.40;99.90;;;;;;4965516;28;20258;-77
2021/08/17 04:32:33;;;;;;;18.23;16.73;;;11.50;99.90;;;;;;4961242;28;20214;-78
2021/08/17 04:35:01;;;;;;;16.43;15.03;;;11.50;99.90;;;;;;4966094;28;20269;-76
2021/08/17 04:37:28;;;;;;;16.73;15.33;;;11.50;99.90;;;;;;4963740;28;20265;-76
2021/08/17 04:39:55;;;;;;;16.97;15.20;;;11.50;99.90;;;;;;4962345;28;20615;-78
2021/08/17 04:42:22;;;;;;;16.47;15.07;;;11.50;99.90;;;;;;4968057;28;20218;-76
2021/08/17 04:44:48;;;;;;;16.90;15.43;;;11.50;99.90;;;;;;4947519;28;20230;-77
2021/08/17 04:47:15;;;;;;;16.27;15.07;;;11.50;99.90;;;;;;4960202;28;20229;-77
2021/08/17 04:49:42;;;;;;;16.73;15.33;;;11.50;99.90;;;;;;4972246;28;20257;-76
2021/08/17 04:52:10;;;;;;;17.70;16.20;;;11.50;99.90;;;;;;4954458;28;20198;-77
2021/08/17 04:54:38;;;;;;;16.30;15.03;;;11.50;99.90;;;;;;4973387;28;20229;-77
2021/08/17 04:57:05;;;;;;;16.73;15.33;;;11.50;99.90;;;;;;4961762;28;20204;-77
2021/08/17 04:59:31;;;;;;;16.70;15.20;;;11.60;99.90;;;;;;4976295;28;20198;-76
2021/08/17 05:01:58;;;;;;;16.27;14.80;;;11.60;99.90;;;;;;4968596;28;20230;-76
2021/08/17 05:04:25;;;;;;;16.30;14.80;;;11.80;99.90;;;;;;4950634;28;20277;-78
2021/08/17 05:06:52;;;;;;;16.10;14.70;;;11.90;99.90;;;;;;4977993;28;20221;-79
2021/08/17 05:09:20;;;;;;;15.87;14.57;;;12.00;99.90;;;;;;4974729;28;20563;-78
2021/08/17 05:11:47;;;;;;;15.13;14.00;;;12.00;99.90;;;;;;4975776;28;20221;-78
2021/08/17 05:14:13;;;;;;;16.80;15.13;;;12.10;99.90;;;;;;4959342;28;20219;-79
2021/08/17 05:16:40;;;;;;;16.43;14.97;;;12.20;99.90;;;;;;4976915;28;20209;-80
2021/08/17 05:19:07;;;;;;;15.43;14.23;;;12.30;99.90;;;;;;4957465;28;20212;-78
2021/08/17 05:21:34;;;;;;;15.30;14.20;;;12.40;99.90;;;;;;4957735;28;20194;-79
2021/08/17 05:24:01;;;;;;;15.83;14.63;;;12.40;99.90;;;;;;4978582;28;20278;-78
2021/08/17 05:26:29;;;;;;;15.60;14.40;;;12.50;99.90;;;;;;4972512;28;20196;-78
2021/08/17 05:28:56;;;;;;;14.57;13.57;;;12.70;99.90;;;;;;4979145;28;20198;-78
2021/08/17 05:31:23;;;;;;;14.53;13.40;;;12.70;99.90;;;;;;4975154;28;20257;-78
2021/08/17 05:33:49;;;;;;;14.57;13.37;;;12.70;99.90;;;;;;4975630;28;20640;-80
2021/08/17 05:36:17;;;;;;;14.43;13.23;;;12.70;99.90;;;;;;4975143;28;20230;-79
2021/08/17 05:38:44;;;;;;;13.40;12.43;;;12.90;99.90;;;;;;4973927;28;20214;-79
2021/08/17 05:41:10;;;;;;;14.87;13.60;;;13.00;99.90;;;;;;4977015;28;20258;-79
2021/08/17 05:43:39;;;;;;;13.73;12.73;;;13.10;99.90;;;;;;4975580;28;20274;-79
2021/08/17 05:46:07;;;;;;;14.37;13.27;;;13.10;99.90;;;;;;4978881;28;20194;-79
2021/08/17 05:48:33;;;;;;;13.93;12.73;;;13.20;99.90;;;;;;4975873;28;20208;-79
2021/08/17 05:51:01;;;;;;;12.37;11.30;;;13.30;99.90;;;;;;4976369;28;20198;-79
2021/08/17 05:53:28;;;;;;;11.23;10.27;;;13.50;99.90;;;;;;4976352;28;20196;-78
2021/08/17 05:55:54;;;;;;;13.60;12.57;;;13.70;99.90;;;;;;4959755;28;20256;-79
2021/08/17 05:58:21;;;;;;;14.77;13.47;;;13.70;99.90;;;;;;4960285;28;20207;-79
2021/08/17 06:00:49;;;;;;;13.00;12.10;;;13.70;99.90;;;;;;4962852;28;20269;-79
2021/08/17 06:03:16;;;;;;;12.17;11.07;;;13.70;99.90;;;;;;4980394;28;20224;-79
2021/08/17 06:05:43;;;;;;;9.10;6.80;;;13.80;99.90;;;;;;4960476;28;20228;-79
2021/08/17 06:08:10;;;;;;;12.03;10.87;;;13.80;99.90;;;;;;4981717;28;20248;-78
2021/08/17 06:10:36;;;;;;;11.97;10.97;;;13.80;99.90;;;;;;4983129;28;20203;-81
2021/08/17 06:13:03;;;;;;;11.03;10.03;;;13.90;99.90;;;;;;4979659;28;20201;-79
2021/08/17 06:15:30;;;;;;;10.30;9.50;;;14.00;99.90;;;;;;4980172;28;20233;-79
2021/08/17 06:18:02;;;;;;;10.53;9.63;;;14.10;99.90;;;;;;4980067;28;20762;-79
2021/08/17 06:20:30;;;;;;;9.73;8.83;;;14.20;99.90;;;;;;4980801;28;20297;-79
2021/08/17 06:22:56;;;;;;;12.23;11.23;;;14.40;99.90;;;;;;4976033;28;20216;-79
2021/08/17 06:25:23;;;;;;;9.97;9.07;;;14.60;99.90;;;;;;4979655;28;20637;-79
2021/08/17 06:27:50;;;;;;;12.87;11.83;;;14.80;99.90;;;;;;4961605;28;20260;-79
2021/08/17 06:30:17;;;;;;;14.40;13.30;;;14.90;99.90;;;;;;4977360;28;20258;-79
2021/08/17 06:32:44;;;;;;;12.47;11.47;;;14.90;99.90;;;;;;4976875;28;20212;-79
2021/08/17 06:35:12;;;;;;;11.10;10.27;;;15.00;99.90;;;;;;4962968;28;20225;-80
2021/08/17 06:37:39;;;;;;;11.73;10.83;;;15.00;99.90;;;;;;4974659;28;20194;-80
2021/08/17 06:40:07;;;;;;;12.23;11.33;;;15.00;99.90;;;;;;4981610;28;20736;-79
2021/08/17 06:42:35;;;;;;;11.80;10.97;;;15.10;99.90;;;;;;4959461;28;20222;-80
2021/08/17 06:45:03;;;;;;;11.07;10.07;;;15.10;99.90;;;;;;4978379;28;20250;-79
2021/08/17 06:47:29;;;;;;;12.67;11.67;;;15.20;99.90;;;;;;4960624;28;20732;-81
2021/08/17 06:49:56;;;;;;;13.03;12.03;;;15.20;99.90;;;;;;4957491;28;20332;-79
2021/08/17 06:52:24;;;;;;;12.50;11.60;;;15.20;99.90;;;;;;4978750;28;20202;-78
2021/08/17 06:54:51;;;;;;;12.67;11.77;;;15.30;99.90;;;;;;4980200;28;20235;-78
2021/08/17 06:57:18;;;;;;;12.17;11.17;;;15.40;99.90;;;;;;4962885;28;20207;-78
2021/08/17 06:59:45;;;;;;;12.87;11.87;;;15.60;99.90;;;;;;4980697;28;20210;-78
2021/08/17 07:02:11;;;;;;;12.20;11.20;;;15.70;99.90;;;;;;4961011;28;20254;-79
2021/08/17 07:04:38;;;;;;;11.57;10.67;;;15.80;99.90;;;;;;4976840;28;20232;-79
2021/08/17 07:07:05;;;;;;;11.90;10.90;;;15.80;99.90;;;;;;4980513;28;20193;-80
2021/08/17 07:09:33;;;;;;;11.30;10.40;;;15.90;99.90;;;;;;4964628;28;20198;-79
2021/08/17 07:12:00;;;;;;;12.77;11.70;;;15.90;99.90;;;;;;4974013;28;20250;-78
2021/08/17 07:14:27;;;;;;;12.47;11.53;;;16.10;99.90;;;;;;4978407;28;20317;-79
2021/08/17 07:16:53;;;;;;;11.70;10.77;;;16.10;99.90;;;;;;4975960;28;20618;-77
2021/08/17 07:19:20;;;;;;;11.47;10.57;;;16.00;99.90;;;;;;4960500;28;20205;-78
2021/08/17 07:21:47;;;;;;;11.30;10.40;;;16.10;99.90;;;;;;4975468;28;20208;-78
2021/08/17 07:24:14;;;;;;;12.60;11.47;;;16.20;99.90;;;;;;4970446;28;20279;-78
2021/08/17 07:26:42;;;;;;;8.77;7.90;;;16.50;99.90;;;;;;4980425;28;20695;-80
2021/08/17 07:29:09;;;;;;;13.17;11.97;;;16.80;99.90;;;;;;4980619;28;20201;-79
2021/08/17 07:31:36;;;;;;;12.70;11.80;;;17.10;99.90;;;;;;4980983;28;20208;-79
2021/08/17 07:34:05;;;;;;;8.13;5.23;;;17.50;99.90;;;;;;4977638;28;20222;-79
2021/08/17 07:36:32;;;;;;;8.57;7.77;;;17.80;99.90;;;;;;4980391;28;20675;-79
2021/08/17 07:38:59;;;;;;;12.00;10.97;;;18.20;99.90;;;;;;4973700;28;20194;-79
2021/08/17 07:41:26;;;;;;;11.80;10.73;;;18.50;99.90;;;;;;4960637;28;20574;-79
2021/08/17 07:43:54;;;;;;;12.67;11.77;;;19.00;99.90;;;;;;4973616;28;20221;-79
2021/08/17 07:46:21;;;;;;;10.33;9.37;;;19.20;99.90;;;;;;4956455;28;20670;-79
2021/08/17 07:48:48;;;;;;;12.23;11.33;;;19.50;99.90;;;;;;4956010;28;20677;-79
2021/08/17 07:51:15;;;;;;;11.70;10.70;;;20.00;99.90;;;;;;4973919;28;20193;-79
2021/08/17 07:53:42;;;;;;;9.37;8.47;;;20.30;99.90;;;;;;4973706;28;20197;-79
2021/08/17 07:56:09;;;;;;;6.93;6.33;;;20.30;99.90;;;;;;4973764;28;20633;-81
2021/08/17 07:58:36;;;;;;;9.10;8.30;;;20.50;99.90;;;;;;4974694;28;20201;-79
2021/08/17 08:01:04;;;;;;;9.63;8.70;;;20.50;99.90;;;;;;4973562;28;20257;-79
2021/08/17 08:03:33;;;;;;;12.43;11.33;;;20.80;99.90;;;;;;4973244;28;20222;-79
2021/08/17 08:06:00;;;;;;;12.77;11.70;;;21.00;99.90;;;;;;4973844;28;20766;-79
2021/08/17 08:08:27;;;;;;;10.67;9.77;;;21.10;99.90;;;;;;4973205;28;20213;-79
2021/08/17 08:10:54;;;;;;;11.50;10.60;;;21.10;99.90;;;;;;4978916;28;20205;-79
2021/08/17 08:13:20;;;;;;;12.60;11.60;;;21.00;99.90;;;;;;4973358;28;20825;-80
2021/08/17 08:15:47;;;;;;;11.47;10.67;;;21.20;99.90;;;;;;4976270;28;20218;-79
2021/08/17 08:18:15;;;;;;;11.67;10.80;;;21.30;99.90;;;;;;4976815;28;20608;-79
2021/08/17 08:20:43;;;;;;;12.83;11.57;;;21.40;99.90;;;;;;4977739;28;20249;-79
2021/08/17 08:23:10;;;;;;;11.43;10.43;;;21.40;99.90;;;;;;4979199;28;20638;-79
2021/08/17 08:25:37;;;;;;;11.93;10.90;;;21.40;99.90;;;;;;4961793;28;20230;-79
2021/08/17 08:28:05;;;;;;;11.93;11.00;;;21.70;99.90;;;;;;4979488;28;20262;-79
2021/08/17 08:30:31;;;;;;;11.73;10.80;;;21.40;99.90;;;;;;4980330;28;20554;-79
2021/08/17 08:32:58;;;;;;;12.23;11.33;;;21.50;99.90;;;;;;4958712;28;20201;-79
2021/08/17 08:35:28;;;;;;;12.63;11.53;;;21.40;99.90;;;;;;4962629;28;20278;-79
2021/08/17 08:37:55;;;;;;;12.03;11.03;;;21.50;99.90;;;;;;4955895;28;20221;-79
2021/08/17 08:40:24;;;;;;;12.67;11.50;;;21.40;99.90;;;;;;4976983;28;20197;-80
2021/08/17 08:42:52;;;;;;;12.73;11.73;;;21.50;99.90;;;;;;4959591;28;20206;-79
2021/08/17 08:45:19;;;;;;;10.27;9.27;;;22.00;99.90;;;;;;4986049;28;20636;-79
2021/08/17 08:47:46;;;;;;;9.73;8.93;;;22.60;99.90;;;;;;4978325;28;20249;-80
2021/08/17 08:50:14;;;;;;;9.93;8.93;;;23.00;99.90;;;;;;4961840;28;20736;-79
2021/08/17 08:52:42;;;;;;;8.13;5.40;;;23.50;99.90;;;;;;4962042;28;20213;-80
2021/08/17 08:55:11;;;;;;;7.10;5.50;;;23.70;99.90;;;;;;4975517;28;20715;-79
2021/08/17 08:57:39;;;;;;;7.53;5.83;;;23.30;99.90;;;;;;4977119;28;20206;-80
2021/08/17 09:00:09;;;;;;;10.83;9.93;;;22.50;99.90;;;;;;4962079;28;20223;-80
2021/08/17 09:02:36;;;;;;;7.77;6.50;;;22.10;99.90;;;;;;4955451;28;20506;-79
2021/08/17 09:05:04;;;;;;;6.93;6.03;;;21.70;99.90;;;;;;4988006;23;20281;-77
2021/08/17 09:07:39;;;;;;;6.33;5.73;;;21.30;99.90;;;;;;4987953;28;20198;-77
2021/08/17 09:10:11;;;;;;;11.97;10.97;;;21.20;99.90;;;;;;4969597;28;20229;-77
2021/08/17 09:12:40;;;;;;;11.13;10.13;;;20.90;99.90;;;;;;4993349;28;20213;-78
2021/08/17 09:15:10;;;;;;;12.40;11.50;;;20.60;99.90;;;;;;4982905;28;20223;-77
2021/08/17 09:17:37;;;;;;;12.17;11.17;;;20.60;99.90;;;;;;4984829;28;20194;-76
2021/08/17 09:20:05;;;;;;;12.20;11.00;;;20.50;99.90;;;;;;4979484;28;20214;-77
2021/08/17 09:22:32;;;;;;;12.50;10.93;;;20.80;99.90;;;;;;4980418;28;20205;-78
2021/08/17 09:25:02;;;;;;;8.20;5.77;;;20.80;99.90;;;;;;4957051;28;20217;-77
2021/08/17 09:27:32;;;;;;;8.40;5.57;;;21.00;99.90;;;;;;4986712;28;20267;-77
2021/08/17 09:30:08;;;;;;;9.20;8.30;;;20.90;99.90;;;;;;4971739;28;20201;-77
2021/08/17 09:32:35;;;;;;;10.87;9.97;;;20.60;99.90;;;;;;4960946;28;20202;-77
2021/08/17 09:35:04;;;;;;;11.53;10.43;;;20.50;99.90;;;;;;4986684;28;20217;-77
2021/08/17 09:37:34;;;;;;;11.80;10.80;;;20.30;99.90;;;;;;4985881;28;20672;-77
2021/08/17 09:40:04;;;;;;;6.77;5.73;;;20.10;99.90;;;;;;4982137;28;20229;-77
2021/08/17 09:42:33;;;;;;;8.60;5.67;;;19.80;99.90;;;;;;4967252;28;20205;-77
2021/08/17 09:45:13;;;;;;;7.37;5.73;;;19.60;99.90;;;;;;4977512;28;20228;-77
2021/08/17 09:47:42;;;;;;;7.73;6.00;;;19.60;99.90;;;;;;4972636;28;20226;-77
2021/08/17 09:50:24;;;;;;;8.37;6.27;;;19.80;99.90;;;;;;4980644;28;20242;-77
2021/08/17 09:53:07;;;;;;;8.50;7.40;;;20.20;99.90;;;;;;4992455;28;20208;-77
2021/08/17 09:55:44;;;;;;;9.07;6.50;;;20.30;99.90;;;;;;4991145;28;20224;-78
2021/08/17 09:58:21;;;;;;;7.13;5.93;;;20.50;99.90;;;;;;4967120;28;20200;-77
2021/08/17 10:00:49;;;;;;;7.37;6.27;;;20.80;99.90;;;;;;4982959;28;20209;-78
2021/08/17 10:03:17;;;;;;;7.60;6.03;;;20.80;99.90;;;;;;4985150;28;20261;-77
2021/08/17 10:05:44;;;;;;;7.37;5.63;;;20.40;99.90;;;;;;4988743;28;20791;-77
2021/08/17 10:08:12;;;;;;;8.77;6.33;;;20.50;99.90;;;;;;4966268;28;20249;-78
2021/08/17 10:10:39;;;;;;;7.83;5.50;;;20.50;99.90;;;;;;4983000;28;20264;-77
2021/08/17 10:13:09;;;;;;;7.97;5.93;;;20.60;99.90;;;;;;4986539;28;20727;-77
2021/08/17 10:15:37;;;;;;;8.90;6.20;;;20.70;99.90;;;;;;4988643;28;20225;-78
2021/08/17 10:18:05;;;;;;;7.53;5.87;;;20.50;99.90;;;;;;4986557;28;20220;-77
2021/08/17 10:20:33;;;;;;;7.00;5.60;;;20.30;99.90;;;;;;4963637;28;20207;-77
2021/08/17 10:23:00;;;;;;;7.57;5.73;;;20.20;99.90;;;;;;4978471;28;20201;-77
2021/08/17 10:25:27;;;;;;;8.47;6.23;;;20.30;99.90;;;;;;4983757;28;20225;-77
2021/08/17 10:27:54;;;;;;;7.23;5.63;;;20.30;99.90;;;;;;4981433;28;20193;-77
2021/08/17 10:30:23;;;;;;;8.07;6.07;;;20.30;99.90;;;;;;4962904;28;20481;-77
2021/08/17 10:32:56;;;;;;;7.37;5.97;;;20.00;99.90;;;;;;4975507;28;20640;-78
2021/08/17 10:35:52;;;;;;;9.77;6.53;;;19.90;99.90;;;;;;4986654;28;20544;-78
2021/08/17 10:38:40;;;;;;;10.17;8.07;;;20.00;99.90;;;;;;4962785;28;20207;-77
2021/08/17 10:41:08;;;;;;;10.03;7.53;;;20.50;99.90;;;;;;4963058;28;20223;-77
2021/08/17 10:44:11;;;;;;;8.80;7.53;;;21.10;99.90;;;;;;4960333;28;20264;-77
2021/08/17 10:46:42;;;;;;;9.47;8.00;;;21.10;99.90;;;;;;4979507;28;20214;-77
2021/08/17 10:52:04;;;;;;;8.33;7.53;;;20.90;99.90;;;;;;5122845;27;20552;-77
2021/08/17 10:54:32;;;;;;;7.97;7.17;;;21.00;99.90;;;;;;5121921;27;20217;-77
2021/08/17 10:57:16;;;;;;;9.20;8.13;;;21.00;99.90;;;;;;5121978;28;20199;-76
2021/08/17 10:59:44;;;;;;;8.60;7.33;;;21.10;99.90;;;;;;5128909;28;20286;-77
2021/08/17 11:02:12;;;;;;;8.40;7.33;;;21.00;99.90;;;;;;5127932;27;20237;-77
2021/08/17 11:04:41;;;;;;;9.07;7.80;;;20.80;99.90;;;;;;5099503;22;20258;-81
2021/08/17 11:07:33;;;;;;;9.07;7.93;;;20.70;99.90;;;;;;5046493;28;20206;-80
2021/08/17 11:10:02;;;;;;;8.00;7.20;;;20.50;99.90;;;;;;5047170;28;20218;-79
2021/08/17 11:12:35;;;;;;;7.73;6.53;;;20.40;99.90;;;;;;5048812;28;20540;-79
2021/08/17 11:15:04;;;;;;;8.27;5.83;;;20.30;99.90;;;;;;5039793;28;20239;-79
2021/08/17 11:17:31;;;;;;;8.87;5.83;;;20.10;99.90;;;;;;5047058;28;20260;-79
2021/08/17 11:19:58;;;;;;;11.17;8.30;;;20.20;99.90;;;;;;5039107;28;20198;-78
2021/08/17 11:22:27;;;;;;;8.37;6.60;;;20.40;99.90;;;;;;5048515;28;20671;-78
2021/08/17 11:24:57;;;;;;;8.93;8.03;;;20.80;99.90;;;;;;5048375;28;20217;-79
2021/08/17 11:27:26;;;;;;;9.37;8.37;;;21.10;99.90;;;;;;5042498;28;20199;-79
2021/08/17 11:29:56;;;;;;;8.70;7.90;;;21.20;99.90;;;;;;5055507;28;20592;-79
2021/08/17 11:32:29;;;;;;;9.00;8.07;;;21.20;99.90;;;;;;5048668;28;20317;-79
2021/08/17 11:34:57;;;;;;;10.10;8.70;;;21.10;99.90;;;;;;5047936;28;20211;-78
2021/08/17 11:37:24;;;;;;;8.67;7.77;;;21.00;99.90;;;;;;5048046;28;20225;-79
2021/08/17 11:39:52;;;;;;;7.77;6.97;;;21.00;99.90;;;;;;5048309;28;20206;-78
2021/08/17 11:42:23;;;;;;;8.93;7.10;;;21.00;99.90;;;;;;5050196;28;20206;-79
2021/08/17 11:44:52;;;;;;;8.47;7.57;;;20.90;99.90;;;;;;5046706;28;20265;-78
2021/08/17 11:47:20;;;;;;;8.90;7.00;;;20.80;99.90;;;;;;5047748;28;20256;-78
2021/08/17 11:49:48;;;;;;;7.53;5.90;;;20.50;99.90;;;;;;5048144;28;20201;-78
2021/08/17 11:52:18;;;;;;;8.77;6.40;;;20.20;99.90;;;;;;5048382;28;20216;-78
2021/08/17 11:54:51;;;;;;;10.07;7.57;;;20.40;99.90;;;;;;5048076;28;20221;-79
2021/08/17 11:57:22;;;;;;;7.83;6.83;;;20.40;99.90;;;;;;5059443;28;20210;-79
2021/08/17 11:59:51;;;;;;;8.77;7.50;;;20.20;99.90;;;;;;5046696;28;20197;-78
2021/08/17 12:02:24;;;;;;;8.13;6.73;;;20.40;99.90;;;;;;5034113;28;20205;-79
2021/08/17 12:04:53;;;;;;;8.97;8.07;;;20.40;99.90;;;;;;5034179;28;20299;-80
2021/08/17 12:07:21;;;;;;;8.27;7.03;;;20.40;99.90;;;;;;5033004;28;20205;-79
2021/08/17 12:09:49;;;;;;;8.50;7.27;;;20.50;99.90;;;;;;5034190;28;20206;-79
2021/08/17 12:12:18;;;;;;;8.43;7.07;;;20.80;99.90;;;;;;5034145;28;20348;-79
2021/08/17 12:15:07;;;;;;;9.93;7.23;;;20.80;99.90;;;;;;5032867;28;20281;-79
2021/08/17 12:17:34;;;;;;;8.30;7.17;;;20.80;99.90;;;;;;5034171;28;20196;-78
2021/08/17 12:20:06;;;;;;;7.80;7.00;;;21.00;99.90;;;;;;5034360;28;20186;-79
2021/08/17 12:22:34;;;;;;;8.00;7.20;;;21.00;99.90;;;;;;5032902;28;20222;-79
2021/08/17 12:25:01;;;;;;;8.33;7.40;;;21.20;99.90;;;;;;5032861;28;20236;-79
2021/08/17 12:27:29;;;;;;;7.60;6.77;;;21.20;99.90;;;;;;5034033;28;20835;-78
2021/08/17 12:29:58;;;;;;;8.57;7.23;;;21.10;99.90;;;;;;5039183;28;20208;-79
2021/08/17 12:32:28;;;;;;;7.97;6.77;;;21.40;99.90;;;;;;5050779;28;20222;-79
2021/08/17 12:35:03;;;;;;;8.80;6.97;;;21.60;99.90;;;;;;5033746;28;20222;-80
2021/08/17 12:37:36;;;;;;;7.87;6.77;;;21.60;99.90;;;;;;5033675;28;20188;-79
2021/08/17 12:40:04;;;;;;;7.40;6.60;;;21.50;99.90;;;;;;5036974;28;20206;-79
2021/08/17 12:42:38;;;;;;;7.47;6.10;;;21.50;99.90;;;;;;5033815;28;20751;-79